Time;durP1;ratioP1;P1;durP2;ratioP2;P2;SDS_P1;SDS_P2;PMS_P1;PMS_P2;Temp;Humidity;BMP_temperature;BMP_pressure;BME280_temperature;BME280_humidity;BME280_pressure;Samples;Min_cycle;Max_cycle;Signal;HPM_P1;HPM_P2
2023/03/09 00:01:00;;;;;;;13.60;9.60;;;;;;;0.68;99.35;98566.48;105915;1260;62398;-71
2023/03/09 00:03:27;;;;;;;15.10;10.00;;;;;;;0.66;99.57;98572.43;106102;1265;60487;-71
2023/03/09 00:05:56;;;;;;;14.00;9.70;;;;;;;0.66;99.37;98568.48;106047;1264;69768;-70
2023/03/09 00:08:27;;;;;;;15.00;9.90;;;;;;;0.66;99.64;98565.17;106200;1259;71571;-70
2023/03/09 00:10:57;;;;;;;13.70;8.60;;;;;;;0.67;99.49;98565.67;105863;1259;61258;-71
2023/03/09 00:13:24;;;;;;;14.80;9.40;;;;;;;0.66;99.78;98559.94;105764;1259;61633;-73
2023/03/09 00:15:51;;;;;;;14.20;8.60;;;;;;;0.63;99.74;98557.79;105929;1265;73218;-70
2023/03/09 00:18:22;;;;;;;13.50;9.40;;;;;;;0.60;99.68;98555.96;105925;1259;70002;-69
2023/03/09 00:20:49;;;;;;;14.60;9.60;;;;;;;0.58;99.64;98556.35;105967;1259;72554;-72
2023/03/09 00:23:19;;;;;;;14.50;9.20;;;;;;;0.56;99.85;98560.14;106062;1263;60525;-71
2023/03/09 00:25:46;;;;;;;13.80;9.20;;;;;;;0.55;99.82;98562.13;105822;1259;61206;-73
2023/03/09 00:28:13;;;;;;;14.40;9.20;;;;;;;0.55;99.96;98553.90;105998;1259;73052;-70
2023/03/09 00:30:40;;;;;;;14.30;9.00;;;;;;;0.56;99.84;98551.00;106162;1259;70912;-73
2023/03/09 00:33:11;;;;;;;16.00;9.90;;;;;;;0.57;99.90;98559.69;105929;1263;72501;-72
2023/03/09 00:35:38;;;;;;;15.30;9.90;;;;;;;0.58;99.98;98557.83;105907;1264;61357;-73
2023/03/09 00:38:05;;;;;;;14.00;8.90;;;;;;;0.57;99.96;98550.22;106279;1259;61276;-70
2023/03/09 00:40:31;;;;;;;14.70;9.90;;;;;;;0.54;99.95;98541.20;105998;1259;73659;-71
2023/03/09 00:43:01;;;;;;;16.00;9.80;;;;;;;0.52;99.92;98539.59;106045;1259;69946;-70
2023/03/09 00:45:28;;;;;;;17.70;10.10;;;;;;;0.51;100.00;98533.70;106026;1259;71411;-75
2023/03/09 00:47:54;;;;;;;14.50;9.30;;;;;;;0.49;99.99;98533.04;105864;1259;61297;-71
2023/03/09 00:50:24;;;;;;;14.30;9.40;;;;;;;0.48;100.00;98537.38;106220;1266;61359;-71
2023/03/09 00:52:50;;;;;;;14.60;9.90;;;;;;;0.47;100.00;98536.20;105982;1260;73235;-71
2023/03/09 00:55:17;;;;;;;13.00;8.80;;;;;;;0.47;100.00;98529.05;106025;1263;69822;-71
2023/03/09 00:57:50;;;;;;;14.70;10.00;;;;;;;0.46;100.00;98522.38;105805;1259;72796;-72
2023/03/09 01:00:18;;;;;;;15.30;9.70;;;;;;;0.48;100.00;98525.86;105916;1259;61144;-70
2023/03/09 01:02:45;;;;;;;14.70;9.70;;;;;;;0.48;100.00;98528.13;105996;1264;61249;-71
2023/03/09 01:05:11;;;;;;;13.50;9.30;;;;;;;0.48;100.00;98532.06;105731;1259;74228;-71
2023/03/09 01:07:38;;;;;;;15.80;10.00;;;;;;;0.49;100.00;98527.79;105976;1259;70918;-69
2023/03/09 01:10:05;;;;;;;15.00;9.20;;;;;;;0.49;100.00;98510.80;106043;1259;72110;-70
2023/03/09 01:12:36;;;;;;;16.20;9.70;;;;;;;0.47;100.00;98495.80;105981;1265;61255;-72
2023/03/09 01:15:03;;;;;;;12.90;7.90;;;;;;;0.46;100.00;98497.23;105863;1259;61369;-70
2023/03/09 01:17:30;;;;;;;13.90;8.60;;;;;;;0.42;100.00;98494.13;106050;1265;74712;-70
2023/03/09 01:19:57;;;;;;;14.80;9.50;;;;;;;0.40;100.00;98492.52;105927;1265;69987;-69
2023/03/09 01:22:24;;;;;;;13.20;8.70;;;;;;;0.39;100.00;98492.49;106469;1264;72372;-69
2023/03/09 01:24:51;;;;;;;13.90;9.20;;;;;;;0.38;100.00;98490.02;105933;1260;61190;-70
2023/03/09 01:27:18;;;;;;;14.80;9.50;;;;;;;0.36;100.00;98486.68;105853;1259;61357;-71
2023/03/09 01:29:45;;;;;;;13.40;8.40;;;;;;;0.36;100.00;98489.48;106258;1259;73186;-72
2023/03/09 01:32:15;;;;;;;14.70;9.70;;;;;;;0.37;100.00;98489.26;106230;1259;71048;-71
2023/03/09 01:34:41;;;;;;;14.80;9.60;;;;;;;0.35;100.00;98483.48;106347;1259;71459;-71
2023/03/09 01:37:08;;;;;;;15.30;10.30;;;;;;;0.35;100.00;98478.83;105998;1262;61543;-70
2023/03/09 01:39:35;;;;;;;17.50;11.00;;;;;;;0.34;100.00;98482.21;106755;1259;61194;-70
2023/03/09 01:42:02;;;;;;;16.10;10.60;;;;;;;0.33;100.00;98482.05;106690;1264;74473;-69
2023/03/09 01:44:28;;;;;;;15.10;9.80;;;;;;;0.34;100.00;98479.52;106545;1259;71196;-68
2023/03/09 01:46:57;;;;;;;16.30;10.70;;;;;;;0.34;100.00;98472.90;106593;1260;71051;-71
2023/03/09 01:49:36;;;;;;;15.70;10.50;;;;;;;0.33;100.00;98464.95;106285;1264;61138;-70
2023/03/09 01:52:05;;;;;;;14.20;10.00;;;;;;;0.33;100.00;98470.39;106715;1263;61572;-69
2023/03/09 01:54:40;;;;;;;15.00;10.20;;;;;;;0.31;100.00;98472.96;106390;1261;73293;-71
2023/03/09 01:57:30;;;;;;;16.10;10.30;;;;;;;0.31;100.00;98473.84;106018;1265;69320;-70
2023/03/09 02:00:05;;;;;;;14.20;10.10;;;;;;;0.30;100.00;98469.86;106860;1259;71840;-70
2023/03/09 02:02:36;;;;;;;14.20;9.30;;;;;;;0.29;100.00;98470.65;108619;1261;60024;-70
2023/03/09 02:05:09;;;;;;;15.10;10.60;;;;;;;0.29;100.00;98473.26;108605;1259;60888;-70
2023/03/09 02:07:39;;;;;;;15.50;10.40;;;;;;;0.31;100.00;98482.22;107591;1259;74403;-71
2023/03/09 02:10:14;;;;;;;15.50;10.30;;;;;;;0.33;100.00;98485.18;106646;1259;70513;-71
2023/03/09 02:12:42;;;;;;;15.30;10.30;;;;;;;0.33;100.00;98480.06;107382;1259;73159;-71
2023/03/09 02:15:09;;;;;;;14.60;9.90;;;;;;;0.32;100.00;98478.98;106576;1262;61188;-70
2023/03/09 02:17:36;;;;;;;15.00;9.70;;;;;;;0.34;100.00;98478.47;106597;1264;60611;-72
2023/03/09 02:20:09;;;;;;;16.10;9.80;;;;;;;0.35;100.00;98483.23;105740;1262;73956;-70
2023/03/09 02:22:38;;;;;;;12.40;8.80;;;;;;;0.34;100.00;98487.11;106024;1259;69252;-72
2023/03/09 02:25:14;;;;;;;13.20;9.70;;;;;;;0.33;100.00;98491.73;106198;1264;71970;-71
2023/03/09 02:27:40;;;;;;;13.00;9.20;;;;;;;0.34;100.00;98495.52;106073;1260;61381;-70
2023/03/09 02:30:09;;;;;;;14.20;9.30;;;;;;;0.33;100.00;98496.46;105803;1259;61340;-69
2023/03/09 02:32:36;;;;;;;15.50;9.70;;;;;;;0.32;100.00;98495.48;107095;1260;73204;-71
2023/03/09 02:35:03;;;;;;;14.00;9.30;;;;;;;0.33;100.00;98497.89;106038;1259;70297;-71
2023/03/09 02:37:32;;;;;;;13.10;9.20;;;;;;;0.32;100.00;98500.60;105998;1259;72003;-75
2023/03/09 02:40:04;;;;;;;14.00;9.40;;;;;;;0.32;100.00;98503.00;106074;1259;61283;-70
2023/03/09 02:42:31;;;;;;;14.00;8.70;;;;;;;0.32;100.00;98502.66;106055;1259;61411;-73
2023/03/09 02:44:59;;;;;;;15.00;9.80;;;;;;;0.31;100.00;98504.00;106178;1260;73229;-70
2023/03/09 02:47:25;;;;;;;15.50;9.30;;;;;;;0.32;100.00;98502.63;105968;1260;69678;-71
2023/03/09 02:49:52;;;;;;;14.30;9.30;;;;;;;0.33;100.00;98504.77;105668;1263;71499;-69
2023/03/09 02:52:19;;;;;;;13.40;8.90;;;;;;;0.33;100.00;98506.19;105963;1260;61358;-69
2023/03/09 02:54:46;;;;;;;13.30;9.20;;;;;;;0.32;100.00;98499.65;106169;1268;61093;-70
2023/03/09 02:57:13;;;;;;;15.40;9.90;;;;;;;0.32;100.00;98496.42;105888;1259;74656;-70
2023/03/09 02:59:40;;;;;;;14.10;9.30;;;;;;;0.31;100.00;98493.50;106594;1259;71294;-70
2023/03/09 03:02:14;;;;;;;14.30;9.60;;;;;;;0.30;100.00;98489.67;105839;1265;73140;-72
2023/03/09 03:04:41;;;;;;;17.20;10.60;;;;;;;0.29;100.00;98486.64;106133;1259;59953;-70
2023/03/09 03:07:08;;;;;;;17.20;10.40;;;;;;;0.28;100.00;98487.48;106035;1259;62492;-74
2023/03/09 03:09:35;;;;;;;17.50;10.00;;;;;;;0.27;100.00;98488.41;106200;1259;73136;-72
2023/03/09 03:12:04;;;;;;;19.40;11.10;;;;;;;0.25;100.00;98486.91;105909;1259;71129;-70
2023/03/09 03:14:31;;;;;;;15.10;9.90;;;;;;;0.22;100.00;98488.38;106163;1264;70855;-70
2023/03/09 03:17:02;;;;;;;14.20;9.80;;;;;;;0.21;100.00;98488.31;106111;1259;62965;-72
2023/03/09 03:19:37;;;;;;;16.50;11.10;;;;;;;0.20;100.00;98482.55;106154;1260;61228;-73
2023/03/09 03:22:05;;;;;;;17.90;10.80;;;;;;;0.19;100.00;98486.09;105863;1266;73168;-70
2023/03/09 03:24:39;;;;;;;18.00;11.20;;;;;;;0.19;100.00;98492.52;106372;1259;69650;-70
2023/03/09 03:27:06;;;;;;;17.90;11.20;;;;;;;0.19;100.00;98501.08;105998;1259;72427;-72
2023/03/09 03:29:33;;;;;;;17.90;11.40;;;;;;;0.18;100.00;98511.97;106191;1259;62261;-70
2023/03/09 03:32:00;;;;;;;17.60;11.30;;;;;;;0.18;100.00;98516.41;105935;1259;61187;-70
2023/03/09 03:34:27;;;;;;;18.50;11.30;;;;;;;0.20;100.00;98521.10;106233;1264;75873;-70
2023/03/09 03:36:57;;;;;;;18.50;11.90;;;;;;;0.20;100.00;98530.88;106110;1260;72654;-73
2023/03/09 03:39:29;;;;;;;19.10;11.70;;;;;;;0.20;100.00;98543.55;105754;1260;72542;-70
2023/03/09 03:41:55;;;;;;;20.00;12.20;;;;;;;0.20;100.00;98551.25;106107;1264;61279;-70
2023/03/09 03:44:22;;;;;;;18.40;12.20;;;;;;;0.19;100.00;98556.83;106148;1259;61304;-70
2023/03/09 03:46:50;;;;;;;21.50;13.10;;;;;;;0.19;100.00;98560.64;106074;1259;75168;-72
2023/03/09 03:49:17;;;;;;;18.80;11.50;;;;;;;0.20;100.00;98556.08;106093;1266;71244;-72
2023/03/09 03:51:45;;;;;;;23.00;14.40;;;;;;;0.20;100.00;98556.95;106298;1259;71540;-70
2023/03/09 03:54:12;;;;;;;22.20;13.70;;;;;;;0.22;100.00;98555.29;105817;1267;61381;-70
2023/03/09 03:56:39;;;;;;;19.80;12.70;;;;;;;0.24;100.00;98560.85;106282;1264;61263;-69
2023/03/09 03:59:06;;;;;;;21.80;13.40;;;;;;;0.24;100.00;98563.84;105777;1266;74485;-70
2023/03/09 04:01:34;;;;;;;21.10;12.80;;;;;;;0.24;100.00;98572.05;106129;1265;70002;-69
2023/03/09 04:04:01;;;;;;;21.50;13.40;;;;;;;0.23;100.00;98567.62;106238;1263;71708;-74
2023/03/09 04:06:28;;;;;;;21.90;13.20;;;;;;;0.23;100.00;98569.46;106283;1260;61355;-69
2023/03/09 04:08:55;;;;;;;22.30;13.60;;;;;;;0.24;100.00;98571.10;106239;1260;61332;-69
2023/03/09 04:11:22;;;;;;;21.10;13.00;;;;;;;0.26;100.00;98571.98;105851;1267;73852;-73
2023/03/09 04:13:50;;;;;;;20.70;12.20;;;;;;;0.26;100.00;98576.13;106087;1264;69836;-69
2023/03/09 04:16:17;;;;;;;24.60;14.00;;;;;;;0.24;100.00;98578.46;105922;1263;71793;-69
2023/03/09 04:18:44;;;;;;;20.80;13.10;;;;;;;0.24;100.00;98577.79;106062;1259;62230;-69
2023/03/09 04:21:11;;;;;;;22.00;13.60;;;;;;;0.24;100.00;98584.67;106078;1261;61269;-69
2023/03/09 04:23:38;;;;;;;23.20;14.40;;;;;;;0.25;100.00;98589.33;106036;1265;74394;-70
2023/03/09 04:26:06;;;;;;;24.30;14.90;;;;;;;0.24;100.00;98591.45;106056;1264;71296;-70
2023/03/09 04:28:33;;;;;;;21.30;12.60;;;;;;;0.26;100.00;98595.48;106288;1260;71240;-71
2023/03/09 04:31:00;;;;;;;22.50;14.00;;;;;;;0.25;100.00;98602.63;105937;1265;61363;-72
2023/03/09 04:33:27;;;;;;;24.20;14.20;;;;;;;0.26;100.00;98607.23;105972;1264;61163;-69
2023/03/09 04:35:54;;;;;;;22.40;13.70;;;;;;;0.25;100.00;98606.14;105859;1261;74588;-71
2023/03/09 04:38:21;;;;;;;22.10;13.90;;;;;;;0.26;100.00;98610.93;105948;1266;70078;-70
2023/03/09 04:40:47;;;;;;;22.10;13.40;;;;;;;0.27;100.00;98624.70;106134;1259;73176;-71
2023/03/09 04:43:14;;;;;;;23.00;13.40;;;;;;;0.29;100.00;98631.61;106969;1259;63135;-69
2023/03/09 04:45:41;;;;;;;22.80;13.90;;;;;;;0.30;100.00;98632.16;107601;1259;61229;-69
2023/03/09 04:48:08;;;;;;;22.10;13.30;;;;;;;0.30;100.00;98625.28;106497;1261;72184;-69
2023/03/09 04:50:35;;;;;;;22.50;14.00;;;;;;;0.30;100.00;98627.02;106065;1261;71292;-69
2023/03/09 04:53:01;;;;;;;21.70;13.50;;;;;;;0.31;100.00;98635.55;106041;1264;72674;-71
2023/03/09 04:55:30;;;;;;;22.00;14.50;;;;;;;0.32;100.00;98639.09;105866;1268;61279;-74
2023/03/09 04:57:57;;;;;;;21.60;13.80;;;;;;;0.34;100.00;98636.11;106009;1260;61261;-72
2023/03/09 05:00:25;;;;;;;21.20;13.70;;;;;;;0.36;100.00;98635.92;106178;1260;74689;-70
2023/03/09 05:02:51;;;;;;;20.90;13.40;;;;;;;0.36;100.00;98634.72;105875;1259;70465;-70
2023/03/09 05:05:21;;;;;;;21.20;13.80;;;;;;;0.36;100.00;98633.78;105688;1259;71770;-70
2023/03/09 05:07:48;;;;;;;22.50;13.60;;;;;;;0.36;100.00;98634.14;105933;1259;61359;-75
2023/03/09 05:10:15;;;;;;;21.00;13.30;;;;;;;0.35;100.00;98637.59;106081;1262;61294;-70
2023/03/09 05:12:42;;;;;;;20.20;13.00;;;;;;;0.35;100.00;98638.14;107913;1263;73531;-69
2023/03/09 05:15:09;;;;;;;22.60;13.70;;;;;;;0.34;100.00;98640.16;106713;1264;69293;-74
2023/03/09 05:17:39;;;;;;;20.40;13.10;;;;;;;0.33;100.00;98638.69;106108;1264;72783;-70
2023/03/09 05:20:10;;;;;;;20.60;13.40;;;;;;;0.31;100.00;98647.79;105982;1265;61694;-69
2023/03/09 05:22:37;;;;;;;20.80;13.70;;;;;;;0.32;100.00;98667.14;106217;1265;61312;-70
2023/03/09 05:25:07;;;;;;;19.90;12.90;;;;;;;0.33;100.00;98670.50;105969;1259;73474;-69
2023/03/09 05:27:37;;;;;;;20.90;13.10;;;;;;;0.33;100.00;98662.68;105849;1259;71406;-70
2023/03/09 05:30:04;;;;;;;20.40;13.20;;;;;;;0.32;100.00;98658.91;106209;1267;72456;-70
2023/03/09 05:32:32;;;;;;;22.70;14.20;;;;;;;0.33;100.00;98660.59;106192;1259;62169;-71
2023/03/09 05:34:59;;;;;;;19.80;12.60;;;;;;;0.37;100.00;98665.70;106072;1261;61273;-71
2023/03/09 05:37:28;;;;;;;21.90;13.60;;;;;;;0.42;100.00;98673.89;106030;1260;75791;-71
2023/03/09 05:39:55;;;;;;;19.90;12.90;;;;;;;0.47;100.00;98678.33;105970;1268;69448;-72
2023/03/09 05:42:24;;;;;;;19.40;12.00;;;;;;;0.49;100.00;98687.48;106126;1259;73949;-71
2023/03/09 05:44:53;;;;;;;20.70;12.90;;;;;;;0.51;100.00;98687.28;106029;1259;61791;-72
2023/03/09 05:47:22;;;;;;;19.60;12.50;;;;;;;0.52;100.00;98691.69;105717;1260;61596;-74
2023/03/09 05:49:49;;;;;;;19.70;12.40;;;;;;;0.53;100.00;98696.55;105773;1266;73440;-71
2023/03/09 05:52:16;;;;;;;18.80;11.80;;;;;;;0.54;100.00;98710.80;106011;1260;71268;-74
2023/03/09 05:54:46;;;;;;;18.10;12.00;;;;;;;0.55;100.00;98718.27;105882;1266;71170;-72
2023/03/09 05:57:13;;;;;;;17.80;11.80;;;;;;;0.57;100.00;98722.61;106169;1265;62329;-71
2023/03/09 05:59:41;;;;;;;17.30;11.30;;;;;;;0.58;100.00;98721.50;106025;1263;61171;-71
2023/03/09 06:02:08;;;;;;;18.20;11.60;;;;;;;0.58;100.00;98726.14;106007;1261;73165;-71
2023/03/09 06:04:35;;;;;;;17.80;12.00;;;;;;;0.58;100.00;98718.38;106130;1259;69746;-72
2023/03/09 06:07:02;;;;;;;17.10;11.30;;;;;;;0.59;100.00;98724.35;106030;1266;70589;-71
2023/03/09 06:09:30;;;;;;;17.50;11.50;;;;;;;0.58;100.00;98734.13;105724;1263;61468;-73
2023/03/09 06:11:57;;;;;;;17.40;11.10;;;;;;;0.59;100.00;98740.28;106244;1262;61134;-71
2023/03/09 06:14:26;;;;;;;20.70;13.50;;;;;;;0.62;100.00;98747.67;106271;1259;73471;-71
2023/03/09 06:16:53;;;;;;;17.70;11.60;;;;;;;0.65;100.00;98748.23;106074;1261;69905;-71
2023/03/09 06:19:23;;;;;;;16.50;11.00;;;;;;;0.68;100.00;98750.70;106291;1266;73583;-71
2023/03/09 06:21:52;;;;;;;17.60;11.60;;;;;;;0.71;100.00;98742.59;106072;1266;61115;-71
2023/03/09 06:24:21;;;;;;;18.60;12.30;;;;;;;0.75;100.00;98733.60;106324;1260;61687;-71
2023/03/09 06:26:49;;;;;;;18.70;12.10;;;;;;;0.80;100.00;98738.87;105905;1266;74462;-72
2023/03/09 06:29:16;;;;;;;16.40;11.20;;;;;;;0.84;100.00;98743.86;106376;1260;71172;-71
2023/03/09 06:31:43;;;;;;;17.20;11.30;;;;;;;0.86;100.00;98747.83;108643;1259;72031;-71
2023/03/09 06:34:10;;;;;;;17.30;11.60;;;;;;;0.89;100.00;98747.83;108604;1259;59778;-71
2023/03/09 06:36:37;;;;;;;19.00;12.50;;;;;;;0.94;100.00;98753.73;108632;1262;59407;-71
2023/03/09 06:39:04;;;;;;;17.00;11.10;;;;;;;0.97;99.95;98755.15;108734;1260;74936;-71
2023/03/09 06:41:32;;;;;;;17.50;11.80;;;;;;;1.01;99.94;98753.34;108636;1260;70038;-71
2023/03/09 06:43:59;;;;;;;18.20;11.70;;;;;;;1.06;99.85;98759.31;108639;1261;72709;-71
2023/03/09 06:46:26;;;;;;;19.00;12.40;;;;;;;1.11;99.77;98759.77;108731;1260;59448;-71
2023/03/09 06:48:53;;;;;;;17.40;11.30;;;;;;;1.19;99.81;98761.91;105995;1261;61257;-71
2023/03/09 06:51:21;;;;;;;17.90;11.80;;;;;;;1.25;99.41;98765.86;105860;1266;74547;-73
2023/03/09 06:53:52;;;;;;;16.10;10.40;;;;;;;1.31;99.14;98767.23;106258;1259;69312;-70
2023/03/09 06:56:19;;;;;;;15.40;10.10;;;;;;;1.36;98.65;98764.97;106276;1260;72779;-70
2023/03/09 06:58:46;;;;;;;14.70;10.60;;;;;;;1.40;98.57;98764.61;106001;1260;61309;-72
2023/03/09 07:01:14;;;;;;;14.20;9.90;;;;;;;1.44;98.42;98767.07;105793;1266;61309;-72
2023/03/09 07:03:42;;;;;;;15.50;10.50;;;;;;;1.50;98.33;98773.59;105732;1266;73979;-72
2023/03/09 07:06:09;;;;;;;13.80;9.90;;;;;;;1.56;98.21;98790.01;106151;1263;71278;-71
2023/03/09 07:08:36;;;;;;;13.70;9.80;;;;;;;1.64;98.07;98803.77;106122;1260;70333;-72
2023/03/09 07:11:03;;;;;;;14.10;10.40;;;;;;;1.70;97.90;98820.96;105998;1261;61248;-71
2023/03/09 07:13:32;;;;;;;15.30;10.80;;;;;;;1.74;97.57;98825.20;105884;1264;61349;-71
2023/03/09 07:16:03;;;;;;;15.30;10.00;;;;;;;1.76;96.89;98816.35;106038;1261;74036;-71
2023/03/09 07:18:32;;;;;;;14.40;9.30;;;;;;;1.79;96.64;98819.81;106067;1263;71277;-71
2023/03/09 07:21:02;;;;;;;13.60;9.70;;;;;;;1.82;96.59;98824.91;105835;1262;71367;-71
2023/03/09 07:23:31;;;;;;;14.90;10.20;;;;;;;1.84;96.09;98825.40;106222;1263;61328;-71
2023/03/09 07:26:04;;;;;;;14.10;10.70;;;;;;;1.87;95.97;98820.69;106278;1261;61402;-71
2023/03/09 07:28:32;;;;;;;15.50;10.00;;;;;;;1.95;96.23;98825.12;106079;1259;73736;-71
2023/03/09 07:31:05;;;;;;;14.40;10.30;;;;;;;1.99;95.42;98841.39;105942;1262;72439;-71
2023/03/09 07:33:32;;;;;;;14.70;9.90;;;;;;;2.03;95.68;98858.35;105892;1262;71521;-71
2023/03/09 07:35:59;;;;;;;13.00;9.30;;;;;;;2.06;95.08;98872.34;106136;1264;61299;-71
2023/03/09 07:38:26;;;;;;;13.60;10.10;;;;;;;2.12;95.45;98878.02;106054;1259;61443;-71
2023/03/09 07:40:52;;;;;;;14.50;10.00;;;;;;;2.21;95.12;98879.09;106008;1260;73614;-73
2023/03/09 07:43:19;;;;;;;14.10;9.90;;;;;;;2.34;95.13;98886.98;106000;1261;70999;-71
2023/03/09 07:45:47;;;;;;;14.80;9.90;;;;;;;2.42;94.28;98885.02;106094;1263;73227;-71
2023/03/09 07:48:15;;;;;;;13.70;10.00;;;;;;;2.46;93.59;98887.58;105997;1260;61288;-73
2023/03/09 07:50:42;;;;;;;13.80;9.90;;;;;;;2.48;93.52;98893.10;106090;1260;61248;-71
2023/03/09 07:53:10;;;;;;;14.10;9.80;;;;;;;2.51;93.48;98893.89;105855;1262;73557;-70
2023/03/09 07:55:37;;;;;;;14.20;10.10;;;;;;;2.51;92.55;98894.57;105937;1261;70412;-71
2023/03/09 07:58:04;;;;;;;14.70;10.40;;;;;;;2.52;92.52;98898.48;106187;1259;71415;-70
2023/03/09 08:00:32;;;;;;;13.60;10.30;;;;;;;2.60;93.10;98903.19;106075;1263;62454;-74
2023/03/09 08:03:00;;;;;;;13.00;9.50;;;;;;;2.62;92.53;98897.57;105905;1263;61259;-72
2023/03/09 08:05:27;;;;;;;14.90;10.40;;;;;;;2.62;91.82;98900.70;106098;1263;74679;-69
2023/03/09 08:07:54;;;;;;;13.10;10.50;;;;;;;2.63;91.78;98902.27;106015;1260;71276;-71
2023/03/09 08:10:21;;;;;;;15.10;10.80;;;;;;;2.67;91.98;98904.70;105977;1261;72460;-72
2023/03/09 08:12:49;;;;;;;15.20;10.80;;;;;;;2.70;91.53;98906.79;105770;1266;61323;-72
2023/03/09 08:15:18;;;;;;;15.10;10.80;;;;;;;2.73;91.50;98905.25;105831;1264;61375;-71
2023/03/09 08:17:45;;;;;;;15.20;10.50;;;;;;;2.76;91.23;98902.75;106029;1266;75351;-71
2023/03/09 08:20:13;;;;;;;14.30;10.50;;;;;;;2.78;90.54;98905.71;105950;1260;71328;-72
2023/03/09 08:22:40;;;;;;;14.60;9.90;;;;;;;2.76;90.30;98911.33;105822;1260;72810;-74
2023/03/09 08:25:08;;;;;;;14.10;10.30;;;;;;;2.78;90.33;98918.13;105780;1270;61274;-71
2023/03/09 08:27:43;;;;;;;13.10;9.70;;;;;;;2.82;90.68;98926.89;106043;1260;61264;-71
2023/03/09 08:30:12;;;;;;;12.90;9.00;;;;;;;2.83;90.24;98939.48;105776;1267;73934;-72
2023/03/09 08:32:39;;;;;;;14.30;10.20;;;;;;;2.80;89.36;98936.24;106178;1260;71345;-70
2023/03/09 08:35:06;;;;;;;13.20;9.50;;;;;;;2.77;90.01;98943.49;106077;1260;72517;-71
2023/03/09 08:37:33;;;;;;;13.40;10.30;;;;;;;2.77;89.76;98948.24;106034;1261;61506;-71
2023/03/09 08:40:02;;;;;;;12.90;9.10;;;;;;;2.76;89.78;98946.64;106328;1260;62884;-71
2023/03/09 08:42:29;;;;;;;13.00;9.70;;;;;;;2.72;89.74;98951.23;105721;1260;76365;-71
2023/03/09 08:44:58;;;;;;;12.90;9.10;;;;;;;2.72;89.90;98950.48;105946;1261;69974;-72
2023/03/09 08:47:24;;;;;;;14.60;9.70;;;;;;;2.76;89.85;98944.55;106032;1264;72666;-70
2023/03/09 08:49:52;;;;;;;14.70;10.20;;;;;;;2.83;90.13;98940.27;105775;1267;331429;-71
2023/03/09 08:52:21;;;;;;;15.20;10.30;;;;;;;2.92;89.92;98944.02;106202;1260;61250;-72
2023/03/09 08:54:51;;;;;;;12.90;9.70;;;;;;;3.04;90.27;98944.23;106274;1260;74367;-70
2023/03/09 08:57:19;;;;;;;13.30;9.80;;;;;;;3.16;89.98;98947.58;105829;1266;70047;-71
2023/03/09 08:59:48;;;;;;;13.90;9.90;;;;;;;3.28;89.30;98955.05;106176;1261;71569;-70
2023/03/09 09:02:18;;;;;;;14.00;10.00;;;;;;;3.35;88.60;98962.54;105953;1260;61591;-71
2023/03/09 09:04:45;;;;;;;14.40;10.00;;;;;;;3.37;88.43;98967.84;105795;1260;61251;-73
2023/03/09 09:07:17;;;;;;;15.30;9.90;;;;;;;3.40;88.29;98971.56;105783;1264;74511;-72
2023/03/09 09:09:44;;;;;;;12.40;8.50;;;;;;;3.44;87.65;98975.45;106019;1260;70389;-71
2023/03/09 09:12:12;;;;;;;12.60;9.30;;;;;;;3.46;87.69;98982.90;105878;1260;70756;-70
2023/03/09 09:14:38;;;;;;;13.40;10.10;;;;;;;3.47;87.53;98985.19;106010;1264;61254;-72
2023/03/09 09:17:11;;;;;;;12.50;9.00;;;;;;;3.50;87.44;98990.13;105804;1260;61264;-71
2023/03/09 09:19:39;;;;;;;12.20;8.60;;;;;;;3.48;86.12;98987.71;106093;1260;73495;-70
2023/03/09 09:22:08;;;;;;;12.30;8.70;;;;;;;3.50;86.56;98988.74;105738;1266;71216;-71
2023/03/09 09:24:45;;;;;;;16.10;10.90;;;;;;;3.53;86.17;98990.02;105772;1264;72084;-74
2023/03/09 09:27:12;;;;;;;13.80;10.10;;;;;;;3.55;86.18;98989.06;105875;1264;61228;-71
2023/03/09 09:29:39;;;;;;;16.90;11.20;;;;;;;3.54;85.93;98991.84;105980;1260;60523;-73
2023/03/09 09:32:08;;;;;;;16.00;10.60;;;;;;;3.52;85.64;98990.61;105896;1264;74727;-72
2023/03/09 09:34:35;;;;;;;17.80;11.10;;;;;;;3.52;85.92;98994.63;106001;1260;70062;-73
2023/03/09 09:37:05;;;;;;;16.10;10.80;;;;;;;3.55;85.87;98991.38;105933;1260;72750;-72
2023/03/09 09:39:32;;;;;;;13.80;10.10;;;;;;;3.59;85.68;98990.25;105995;1260;61353;-72
2023/03/09 09:42:04;;;;;;;12.90;9.50;;;;;;;3.67;85.83;98991.42;106075;1260;61112;-73
2023/03/09 09:44:37;;;;;;;12.20;9.20;;;;;;;3.70;84.98;99001.00;105775;1261;75702;-71
2023/03/09 09:47:07;;;;;;;12.50;8.90;;;;;;;3.68;84.48;99007.58;106018;1267;69847;-71
2023/03/09 09:49:45;;;;;;;12.90;9.10;;;;;;;3.65;84.44;99008.24;105974;1260;73051;-72
2023/03/09 09:52:13;;;;;;;12.60;9.00;;;;;;;3.68;85.13;99012.33;105986;1261;61248;-72
2023/03/09 09:54:58;;;;;;;12.60;9.40;;;;;;;3.73;84.98;99019.84;105934;1262;61148;-73
2023/03/09 09:57:46;;;;;;;11.60;8.70;;;;;;;3.77;84.61;99021.07;105988;1260;73263;-73
2023/03/09 10:00:22;;;;;;;11.60;8.90;;;;;;;3.80;84.45;99017.27;106023;1263;71004;-72
2023/03/09 10:02:54;;;;;;;12.70;9.40;;;;;;;3.85;84.38;99015.48;105954;1260;72447;-73
2023/03/09 10:05:39;;;;;;;12.60;9.50;;;;;;;3.91;84.58;99015.67;105936;1260;61269;-71
2023/03/09 10:08:21;;;;;;;11.30;8.80;;;;;;;4.00;84.10;99018.86;105962;1261;61131;-71
2023/03/09 10:10:48;;;;;;;12.80;9.50;;;;;;;4.03;83.71;99026.45;105905;1260;74576;-72
2023/03/09 10:13:32;;;;;;;13.70;9.40;;;;;;;4.04;83.50;99031.79;105986;1261;69943;-71
2023/03/09 10:16:05;;;;;;;11.80;8.60;;;;;;;4.03;82.87;99034.63;105851;1261;71558;-73
2023/03/09 10:18:39;;;;;;;13.30;9.70;;;;;;;4.00;83.00;99039.30;105842;1260;61338;-72
2023/03/09 10:21:15;;;;;;;11.70;8.30;;;;;;;4.02;83.41;99040.08;105859;1261;61394;-72
2023/03/09 10:23:46;;;;;;;13.80;9.90;;;;;;;4.05;83.22;99038.55;106045;1261;73550;-73
2023/03/09 10:26:42;;;;;;;13.30;9.80;;;;;;;4.08;83.10;99042.02;105951;1261;71179;-72
2023/03/09 10:29:30;;;;;;;12.70;9.60;;;;;;;4.12;83.55;99051.06;105904;1267;72704;-73
2023/03/09 10:32:04;;;;;;;11.50;8.70;;;;;;;4.17;83.24;99052.13;105846;1259;61253;-72
2023/03/09 10:34:43;;;;;;;12.70;9.30;;;;;;;4.24;83.25;99052.46;106061;1263;59482;-72
2023/03/09 10:37:19;;;;;;;14.80;9.30;;;;;;;4.29;82.49;99050.35;105886;1264;73276;-71
2023/03/09 10:39:47;;;;;;;13.80;9.90;;;;;;;4.32;82.31;99047.63;105957;1263;69864;-73
2023/03/09 10:42:21;;;;;;;11.40;8.50;;;;;;;4.35;82.36;99053.58;105888;1260;72763;-70
2023/03/09 10:45:24;;;;;;;12.50;9.40;;;;;;;4.31;81.97;99054.15;105923;1259;62377;-71
2023/03/09 10:48:05;;;;;;;15.10;10.20;;;;;;;4.21;81.95;99052.86;106243;1259;61126;-69
2023/03/09 10:50:34;;;;;;;13.20;9.30;;;;;;;4.20;82.66;99049.96;106133;1260;72510;-72
2023/03/09 10:53:35;;;;;;;13.40;10.00;;;;;;;4.26;82.73;99056.23;106055;1261;70212;-75
2023/03/09 10:56:20;;;;;;;14.30;10.30;;;;;;;4.29;82.19;99060.50;105903;1260;72687;-72
2023/03/09 10:59:15;;;;;;;12.50;8.80;;;;;;;4.33;82.02;99061.62;106098;1261;61279;-72
2023/03/09 11:01:48;;;;;;;13.30;9.20;;;;;;;4.33;82.18;99068.77;106054;1260;61442;-73
2023/03/09 11:04:26;;;;;;;12.90;9.40;;;;;;;4.32;82.04;99074.48;106105;1262;74348;-70
2023/03/09 11:06:53;;;;;;;14.50;10.40;;;;;;;4.32;82.19;99075.02;105887;1260;69915;-72
2023/03/09 11:09:35;;;;;;;14.70;9.50;;;;;;;4.34;82.53;99080.10;105835;1260;72570;-73
2023/03/09 11:12:22;;;;;;;13.30;9.20;;;;;;;4.28;81.62;99082.13;106155;1263;61103;-71
2023/03/09 11:14:56;;;;;;;15.30;10.60;;;;;;;4.22;82.07;99089.45;105804;1260;61378;-72
2023/03/09 11:17:39;;;;;;;13.70;9.60;;;;;;;4.19;82.22;99092.13;105735;1260;74766;-72
2023/03/09 11:20:12;;;;;;;14.30;10.10;;;;;;;4.17;82.37;99096.67;105908;1266;70085;-72
2023/03/09 11:22:45;;;;;;;12.30;8.60;;;;;;;4.17;82.51;99097.46;105708;1259;71471;-72
2023/03/09 11:25:21;;;;;;;14.20;10.10;;;;;;;4.09;82.00;99101.23;105924;1259;61312;-72
2023/03/09 11:27:54;;;;;;;13.80;10.10;;;;;;;4.06;82.52;99105.41;106096;1259;61699;-71